createdAt,value
2023-01-05T09:17:46.532Z,100957.22
2023-01-05T09:20:47.651Z,100909.91
2023-01-05T09:23:42.922Z,100899.47
2023-01-05T09:27:02.223Z,100937.34
2023-01-05T09:30:05.571Z,100943.06
2023-01-05T09:33:21.903Z,100938.00
2023-01-05T09:37:01.869Z,101013.09
2023-01-05T09:39:47.570Z,100989.72
2023-01-05T09:42:36.385Z,101001.59
2023-01-05T09:45:26.611Z,101014.63
2023-01-05T09:48:14.932Z,101025.91
2023-01-05T09:51:00.425Z,101033.22
2023-01-05T09:53:46.216Z,101041.72
2023-01-05T09:57:08.582Z,101048.06
2023-01-05T09:59:58.771Z,101049.22
2023-01-05T10:02:52.705Z,101043.66
2023-01-05T10:05:42.568Z,101063.88
2023-01-05T10:08:43.200Z,101062.00
2023-01-05T10:11:58.824Z,101072.47
2023-01-05T10:14:49.688Z,101083.91
2023-01-05T10:17:41.735Z,101091.09
2023-01-05T10:20:43.825Z,101080.16
2023-01-05T10:24:07.383Z,101082.09
2023-01-05T10:27:24.754Z,101102.81
2023-01-05T10:30:26.790Z,101099.06
2023-01-05T10:33:29.486Z,101096.31
2023-01-05T10:40:08.850Z,101137.03
2023-01-05T10:43:15.164Z,101142.09
2023-01-05T10:49:09.163Z,101133.69
2023-01-05T10:51:58.057Z,101140.63
2023-01-05T10:54:47.598Z,101132.44
2023-01-05T10:57:37.226Z,101140.47
2023-01-05T11:00:40.381Z,101140.16
2023-01-05T11:04:05.801Z,101114.34
2023-01-05T11:06:39.330Z,101133.25
2023-01-05T11:09:26.580Z,101154.84
2023-01-05T11:12:23.593Z,101152.97
2023-01-05T11:15:15.148Z,101159.75
2023-01-05T11:18:00.885Z,101151.66
2023-01-05T11:21:04.856Z,101159.41
2023-01-05T11:23:55.781Z,101178.19
2023-01-05T11:26:49.342Z,101179.66
2023-01-05T11:29:34.940Z,101172.94
2023-01-05T11:32:20.239Z,101147.88
2023-01-05T11:35:20.933Z,101140.28
2023-01-05T11:38:24.609Z,101168.97
2023-01-05T11:41:12.503Z,101195.09
2023-01-05T11:44:00.840Z,101195.94
2023-01-05T11:46:47.353Z,101205.63
2023-01-05T11:49:33.746Z,101202.22
2023-01-05T11:52:47.031Z,101198.72
2023-01-05T11:55:38.914Z,101219.81
2023-01-05T11:58:27.430Z,101207.50
2023-01-05T12:01:23.070Z,101208.25
2023-01-05T12:04:30.523Z,101219.25
2023-01-05T12:07:25.075Z,101194.69
2023-01-05T12:10:29.414Z,101218.56
2023-01-05T12:13:29.876Z,101219.41
2023-01-05T12:16:44.628Z,101248.34
2023-01-05T12:19:54.630Z,101227.31
2023-01-05T12:22:43.134Z,101245.47
2023-01-05T12:26:04.392Z,101251.16
2023-01-05T12:30:15.914Z,101235.78
2023-01-05T12:34:01.524Z,101240.22
2023-01-05T12:36:11.272Z,101247.22
2023-01-05T12:39:29.896Z,101250.97
2023-01-05T12:42:44.384Z,101242.59
2023-01-05T12:45:56.467Z,101228.91
2023-01-05T12:48:50.053Z,101251.66
2023-01-05T12:51:45.698Z,101223.38
2023-01-05T12:54:44.783Z,101252.25
2023-01-05T12:57:36.595Z,101232.03
2023-01-05T13:00:22.194Z,101234.41
2023-01-05T13:03:15.716Z,101253.59
2023-01-05T13:06:37.561Z,101236.66
2023-01-05T13:09:26.003Z,101261.50
2023-01-05T13:12:13.770Z,101259.66
2023-01-05T13:15:12.044Z,101266.31
2023-01-05T13:18:02.915Z,101253.63
2023-01-05T13:20:56.302Z,101289.69
2023-01-05T13:23:47.598Z,101271.69
2023-01-05T13:26:37.948Z,101269.41
2023-01-05T13:29:30.626Z,101300.56
2023-01-05T13:32:42.979Z,101295.00
2023-01-05T13:35:49.408Z,101302.19
2023-01-05T13:38:57.749Z,101305.97
2023-01-05T13:42:01.715Z,101321.00
2023-01-05T13:45:03.049Z,101314.38
2023-01-05T13:48:13.302Z,101322.94
2023-01-05T13:51:32.241Z,101328.00
2023-01-05T13:54:49.195Z,101328.94
2023-01-05T13:57:41.317Z,101325.44
2023-01-05T14:00:35.394Z,101337.09
2023-01-05T14:03:29.678Z,101333.22
2023-01-05T14:06:24.135Z,101340.94
2023-01-05T14:09:18.479Z,101346.00
2023-01-05T14:12:14.807Z,101348.00
2023-01-05T14:15:09.147Z,101352.75
2023-01-05T14:17:55.339Z,101366.56
2023-01-05T14:20:49.584Z,101365.78
2023-01-05T14:23:35.174Z,101377.66
2023-01-05T14:26:59.082Z,101382.19
2023-01-05T14:32:44.864Z,101406.94
2023-01-05T14:35:35.849Z,101407.88
2023-01-05T14:38:24.922Z,101425.28
2023-01-05T14:41:16.205Z,101420.00
2023-01-05T14:44:06.634Z,101428.31
2023-01-05T14:46:53.943Z,101443.75
2023-01-05T14:49:54.401Z,101447.69
2023-01-05T14:52:57.326Z,101444.88
2023-01-05T14:56:03.844Z,101452.69
2023-01-05T14:59:01.661Z,101450.00
2023-01-05T15:02:00.407Z,101447.63
2023-01-05T15:04:50.028Z,101466.56
2023-01-05T15:07:48.958Z,101470.97
2023-01-05T15:10:55.483Z,101467.03
2023-01-05T15:14:11.776Z,101449.19
2023-01-05T15:17:41.249Z,101475.22
2023-01-05T15:21:09.552Z,101451.34
2023-01-05T15:24:43.963Z,101470.72
2023-01-05T15:27:52.518Z,101466.88
2023-01-05T15:30:44.335Z,101478.19
2023-01-05T15:33:54.811Z,101472.41
2023-01-05T15:37:04.024Z,101476.41
2023-01-05T15:39:55.326Z,101501.63
2023-01-05T15:42:44.313Z,101503.19
2023-01-05T15:45:36.416Z,101506.88
2023-01-05T15:48:30.977Z,101500.66
2023-01-05T15:51:26.120Z,101478.44
2023-01-05T15:54:21.887Z,101510.25
2023-01-05T15:57:19.696Z,101476.13
2023-01-05T16:00:20.138Z,101496.91
2023-01-05T16:03:32.417Z,101519.38
2023-01-05T16:06:23.398Z,101532.38
2023-01-05T16:09:19.788Z,101529.78
2023-01-05T16:12:23.214Z,101529.03
2023-01-05T16:15:15.920Z,101523.94
2023-01-05T16:18:04.403Z,101528.41
2023-01-05T16:20:53.265Z,101546.81
2023-01-05T16:23:54.131Z,101540.91
2023-01-05T16:26:40.098Z,101555.75
2023-01-05T16:29:40.408Z,101513.38
2023-01-05T16:32:34.618Z,101545.81
2023-01-05T16:35:52.852Z,101541.69
2023-01-05T16:38:39.471Z,101552.16
2023-01-05T16:41:27.726Z,101545.66
2023-01-05T16:44:13.631Z,101559.44
2023-01-05T16:47:07.993Z,101561.97
2023-01-05T16:49:58.360Z,101567.38
2023-01-05T16:53:12.216Z,101569.13
2023-01-05T16:56:00.790Z,101559.72
2023-01-05T16:58:47.095Z,101584.88
2023-01-05T17:01:41.302Z,101585.00
2023-01-05T17:04:26.643Z,101572.09
2023-01-05T17:07:12.389Z,101572.16
2023-01-05T17:09:59.694Z,101583.22
2023-01-05T17:12:52.536Z,101587.72
2023-01-05T17:15:43.599Z,101590.34
2023-01-05T17:18:30.360Z,101599.03
2023-01-05T17:21:19.879Z,101600.75
2023-01-05T17:27:43.117Z,101596.56
2023-01-05T17:30:28.868Z,101584.69
2023-01-05T17:33:14.740Z,101613.06
2023-01-05T17:36:02.850Z,101614.88
2023-01-05T17:38:48.819Z,101614.94
2023-01-05T17:44:20.547Z,101623.88
2023-01-05T17:47:06.135Z,101592.28
2023-01-05T17:49:52.403Z,101619.75
2023-01-05T17:52:38.788Z,101595.66
2023-01-05T17:55:25.818Z,101620.78
2023-01-05T17:58:15.390Z,101634.66
2023-01-05T18:01:01.511Z,101622.47
2023-01-05T18:06:33.425Z,101626.28
2023-01-05T18:09:19.074Z,101619.47
2023-01-05T18:12:04.875Z,101640.28
2023-01-05T18:14:51.433Z,101583.44
2023-01-05T18:17:37.313Z,101628.28
2023-01-05T18:20:22.958Z,101617.94
2023-01-05T18:23:11.373Z,101612.69
2023-01-05T18:26:08.074Z,101623.16
2023-01-05T18:28:54.253Z,101597.38
2023-01-05T18:31:41.905Z,101623.16
2023-01-05T18:34:29.406Z,101630.09
2023-01-05T18:37:22.276Z,101618.19
2023-01-05T18:40:08.780Z,101626.00
2023-01-05T18:42:54.793Z,101601.13
2023-01-05T18:45:40.707Z,101607.09
2023-01-05T18:48:26.379Z,101638.91
2023-01-05T18:51:12.205Z,101625.13
2023-01-05T18:53:58.154Z,101623.53
2023-01-05T18:56:43.718Z,101613.16
2023-01-05T18:59:29.360Z,101636.44
2023-01-05T19:02:15.891Z,101625.16
2023-01-05T19:05:01.281Z,101622.63
2023-01-05T19:07:50.760Z,101635.59
2023-01-05T19:10:37.240Z,101629.66
2023-01-05T19:13:23.110Z,101633.16
2023-01-05T19:16:08.556Z,101626.34
2023-01-05T19:18:56.459Z,101631.53
2023-01-05T19:21:43.715Z,101628.97
2023-01-05T19:24:29.393Z,101608.25
2023-01-05T19:27:14.675Z,101624.59
2023-01-05T19:30:00.313Z,101631.59
2023-01-05T19:32:45.614Z,101626.28
2023-01-05T19:35:31.285Z,101640.00
2023-01-05T19:38:17.200Z,101641.50
2023-01-05T19:41:22.291Z,101631.16
2023-01-05T19:44:11.399Z,101643.13
2023-01-05T19:46:56.805Z,101601.69
2023-01-05T19:49:42.223Z,101631.72
2023-01-05T19:52:29.734Z,101610.84
2023-01-05T19:55:15.497Z,101618.53
2023-01-05T19:58:00.786Z,101631.38
2023-01-05T20:00:46.361Z,101613.09
2023-01-05T20:03:32.028Z,101632.06
2023-01-05T20:06:20.010Z,101614.72
2023-01-05T20:09:09.273Z,101626.81
2023-01-05T20:11:59.449Z,101629.44
2023-01-05T20:14:51.581Z,101623.25
2023-01-05T20:17:36.962Z,101629.22
2023-01-05T20:20:22.441Z,101625.81
2023-01-05T20:23:07.919Z,101628.47
2023-01-05T20:25:53.126Z,101627.59
2023-01-05T20:28:39.097Z,101610.94
2023-01-05T20:31:28.034Z,101626.50
2023-01-05T20:34:17.104Z,101599.09
2023-01-05T20:37:05.398Z,101600.84
2023-01-05T20:39:51.094Z,101628.31
2023-01-05T20:42:37.104Z,101630.81
2023-01-05T20:45:22.681Z,101622.41
2023-01-05T20:48:08.362Z,101618.66
2023-01-05T20:51:00.961Z,101599.13
2023-01-05T20:53:46.254Z,101620.75
2023-01-05T20:56:38.237Z,101623.28
2023-01-05T20:59:27.427Z,101631.00
2023-01-05T21:02:23.664Z,101627.44
2023-01-05T21:05:11.662Z,101585.13
2023-01-05T21:07:57.064Z,101627.28
2023-01-05T21:10:43.459Z,101630.94
2023-01-05T21:13:31.051Z,101638.91
2023-01-05T21:16:42.925Z,101638.72
2023-01-05T21:19:28.302Z,101635.06
2023-01-05T21:22:13.690Z,101639.31
2023-01-05T21:24:58.880Z,101641.78
2023-01-05T21:27:44.301Z,101635.22
2023-01-05T21:30:29.573Z,101606.75
2023-01-05T21:33:15.740Z,101626.56
2023-01-05T21:36:01.220Z,101638.59
2023-01-05T21:39:01.151Z,101618.66
2023-01-05T21:42:08.160Z,101639.97
2023-01-05T21:44:53.954Z,101626.31
2023-01-05T21:47:39.340Z,101642.66
2023-01-05T21:50:43.541Z,101651.00
2023-01-05T21:53:47.688Z,101646.75
2023-01-05T21:56:38.307Z,101637.38
2023-01-05T21:59:23.682Z,101631.34
2023-01-05T22:02:09.373Z,101633.16
2023-01-05T22:04:54.849Z,101615.75
2023-01-05T22:07:40.337Z,101614.06
2023-01-05T22:10:25.875Z,101599.25
2023-01-05T22:13:11.465Z,101592.44
2023-01-05T22:15:57.584Z,101611.03
2023-01-05T22:18:42.999Z,101605.22
2023-01-05T22:21:30.401Z,101633.53
2023-01-05T22:24:15.920Z,101616.97
2023-01-05T22:27:01.173Z,101572.25
2023-01-05T22:29:46.548Z,101609.25
2023-01-05T22:32:31.953Z,101607.38
2023-01-05T22:35:17.326Z,101607.50
2023-01-05T22:38:03.205Z,101621.31
2023-01-05T22:40:57.797Z,101620.47
2023-01-05T22:43:43.616Z,101597.06
2023-01-05T22:46:30.112Z,101580.75
2023-01-05T22:49:16.384Z,101600.69
2023-01-05T22:52:02.799Z,101596.25
2023-01-05T22:54:48.443Z,101580.53
2023-01-05T22:57:33.979Z,101593.59
2023-01-05T23:00:19.590Z,101580.75
2023-01-05T23:03:05.271Z,101574.03
2023-01-05T23:05:52.940Z,101591.13
2023-01-05T23:08:40.050Z,101577.25
2023-01-05T23:11:31.462Z,101590.81
2023-01-05T23:14:18.955Z,101588.44
2023-01-05T23:17:04.634Z,101587.34
2023-01-05T23:19:50.084Z,101590.75
2023-01-05T23:22:35.667Z,101588.72
2023-01-05T23:25:21.072Z,101569.72
2023-01-05T23:28:06.734Z,101574.25
2023-01-05T23:30:53.992Z,101574.31
2023-01-05T23:33:40.008Z,101575.38
2023-01-05T23:36:25.412Z,101568.06
2023-01-05T23:39:11.113Z,101562.81
2023-01-05T23:41:56.634Z,101561.91
2023-01-05T23:44:42.197Z,101556.91
2023-01-05T23:47:27.844Z,101528.09
2023-01-05T23:50:13.281Z,101528.13
2023-01-05T23:52:59.093Z,101542.44
2023-01-05T23:55:44.432Z,101524.19
2023-01-05T23:58:30.020Z,101501.44
